createdAt,value
2018-09-04T16:36:30.545Z,23.60
2018-09-04T16:38:58.731Z,23.50
2018-09-04T16:41:27.009Z,23.50
2018-09-04T16:43:55.753Z,23.50
2018-09-04T16:46:23.938Z,23.60
2018-09-04T16:48:52.882Z,23.50
2018-09-04T16:51:21.131Z,23.40
2018-09-04T16:53:49.308Z,23.50
2018-09-04T16:56:24.336Z,23.50
2018-09-04T16:58:52.592Z,23.50
2018-09-04T17:01:20.788Z,23.50
2018-09-04T17:03:49.007Z,23.50
2018-09-04T17:06:17.174Z,23.60
2018-09-04T17:08:45.300Z,23.50
2018-09-04T17:11:13.449Z,23.50
2018-09-04T17:13:41.668Z,23.50
2018-09-04T17:16:09.871Z,23.50
2018-09-04T17:18:38.095Z,23.40
2018-09-04T17:21:06.283Z,23.40
2018-09-04T17:23:34.532Z,23.40
2018-09-04T17:26:02.896Z,23.30
2018-09-04T17:28:30.993Z,23.30
2018-09-04T17:30:59.193Z,23.20
2018-09-04T17:33:27.360Z,23.20
2018-09-04T17:35:55.531Z,23.20
2018-09-04T17:38:23.783Z,23.20
2018-09-04T17:40:51.974Z,23.20
2018-09-04T17:43:20.133Z,23.10
2018-09-04T17:45:48.441Z,23.10
2018-09-04T17:48:16.709Z,23.00
2018-09-04T17:50:44.869Z,23.00
2018-09-04T17:53:13.133Z,23.00
2018-09-04T17:55:41.305Z,22.90
2018-09-04T17:58:09.561Z,22.80
2018-09-04T18:00:37.764Z,22.80
2018-09-04T18:03:06.028Z,22.70
2018-09-04T18:05:34.253Z,22.80
2018-09-04T18:08:02.468Z,22.70
2018-09-04T18:10:30.637Z,22.60
2018-09-04T18:12:58.953Z,22.60
2018-09-04T18:15:27.161Z,22.60
2018-09-04T18:17:55.470Z,22.60
2018-09-04T18:20:23.715Z,22.50
2018-09-04T18:22:52.164Z,22.40
2018-09-04T18:25:20.395Z,22.30
2018-09-04T18:27:48.598Z,22.20
2018-09-04T18:30:16.833Z,22.20
2018-09-04T18:32:45.166Z,22.20
2018-09-04T18:35:13.322Z,22.10
2018-09-04T18:37:41.567Z,22.10
2018-09-04T18:40:09.731Z,22.00
2018-09-04T18:42:37.958Z,22.00
2018-09-04T18:45:06.335Z,21.80
2018-09-04T18:47:34.503Z,21.70
2018-09-04T18:50:02.912Z,21.60
2018-09-04T18:52:31.080Z,21.50
2018-09-04T18:54:59.373Z,21.40
2018-09-04T18:57:27.608Z,21.40
2018-09-04T18:59:55.805Z,21.30
2018-09-04T19:02:24.015Z,21.20
2018-09-04T19:04:52.379Z,21.20
2018-09-04T19:07:20.607Z,21.10
2018-09-04T19:09:48.844Z,21.10
2018-09-04T19:12:17.152Z,21.10
2018-09-04T19:14:45.292Z,21.10
2018-09-04T19:17:13.590Z,21.00
2018-09-04T19:19:41.913Z,21.00
2018-09-04T19:22:10.120Z,20.90
2018-09-04T19:24:38.792Z,20.80
2018-09-04T19:27:07.118Z,20.80
2018-09-04T19:29:35.414Z,20.80
2018-09-04T19:32:03.727Z,20.70
2018-09-04T19:34:31.922Z,20.60
2018-09-04T19:37:00.191Z,20.50
2018-09-04T19:39:28.396Z,20.50
2018-09-04T19:41:56.792Z,20.50
2018-09-04T19:44:25.028Z,20.50
2018-09-04T19:46:53.308Z,20.50
2018-09-04T19:49:21.628Z,20.50
2018-09-04T19:51:50.283Z,20.50
2018-09-04T19:54:18.622Z,20.40
2018-09-04T19:56:46.891Z,20.40
2018-09-04T19:59:15.203Z,20.40
2018-09-04T20:01:43.499Z,20.40
2018-09-04T20:04:11.896Z,20.30
2018-09-04T20:06:40.228Z,20.30
2018-09-04T20:09:08.560Z,20.30
2018-09-04T20:11:37.012Z,20.30
2018-09-04T20:14:04.675Z,20.40
2018-09-04T20:16:32.945Z,20.30
2018-09-04T20:19:01.143Z,20.30
2018-09-04T20:21:29.362Z,20.10
2018-09-04T20:23:57.548Z,20.00
2018-09-04T20:26:25.804Z,20.00
2018-09-04T20:28:53.996Z,20.00
2018-09-04T20:31:22.257Z,20.00
2018-09-04T20:33:50.467Z,20.10
2018-09-04T20:36:18.728Z,20.10
2018-09-04T20:38:47.026Z,20.10
2018-09-04T20:41:15.413Z,20.10
2018-09-04T20:43:43.631Z,20.10
2018-09-04T20:46:11.920Z,20.10
2018-09-04T20:48:40.177Z,20.00
2018-09-04T20:51:08.442Z,19.90
2018-09-04T20:53:36.757Z,19.80
2018-09-04T20:56:05.017Z,19.70
2018-09-04T20:58:50.026Z,19.60
2018-09-04T21:01:35.366Z,19.60
2018-09-04T21:04:20.705Z,19.60
2018-09-04T21:06:52.898Z,19.60
2018-09-04T21:09:34.308Z,19.50
2018-09-04T21:12:02.629Z,19.50
2018-09-04T21:14:30.843Z,19.50
2018-09-04T21:16:59.188Z,19.40
2018-09-04T21:19:27.468Z,19.40
2018-09-04T21:21:55.764Z,19.30
2018-09-04T21:24:23.990Z,19.30
2018-09-04T21:26:52.184Z,19.30
2018-09-04T21:29:20.365Z,19.30
2018-09-04T21:31:48.585Z,19.30
2018-09-04T21:34:16.770Z,19.30
2018-09-04T21:36:44.904Z,19.20
2018-09-04T21:39:13.085Z,19.20
2018-09-04T21:41:41.426Z,19.30
2018-09-04T21:44:09.676Z,19.30
2018-09-04T21:46:37.858Z,19.30
2018-09-04T21:49:06.106Z,19.20
2018-09-04T21:51:34.345Z,19.20
2018-09-04T21:54:02.619Z,19.20
2018-09-04T21:56:30.805Z,19.20
2018-09-04T21:58:58.996Z,19.20
2018-09-04T22:01:27.192Z,19.20
2018-09-04T22:03:55.992Z,19.20
2018-09-04T22:06:24.172Z,19.10
2018-09-04T22:08:53.079Z,19.10
2018-09-04T22:11:21.398Z,19.10
2018-09-04T22:13:49.554Z,19.00
2018-09-04T22:16:17.756Z,19.00
2018-09-04T22:18:46.097Z,19.00
2018-09-04T22:21:14.271Z,18.80
2018-09-04T22:23:42.542Z,18.80
2018-09-04T22:26:10.715Z,18.80
2018-09-04T22:28:38.893Z,18.90
2018-09-04T22:31:07.139Z,18.80
2018-09-04T22:33:35.273Z,18.80
2018-09-04T22:36:04.847Z,18.70
2018-09-04T22:38:32.995Z,18.70
2018-09-04T22:41:01.229Z,18.60
2018-09-04T22:43:29.370Z,18.60
2018-09-04T22:45:57.602Z,18.60
2018-09-04T22:48:26.127Z,18.60
2018-09-04T22:51:00.726Z,18.50
2018-09-04T22:53:28.892Z,18.50
2018-09-04T22:55:57.105Z,18.50
2018-09-04T22:58:25.195Z,18.50
2018-09-04T23:00:53.358Z,18.50
2018-09-04T23:03:21.525Z,18.50
2018-09-04T23:05:53.738Z,18.40
2018-09-04T23:08:22.445Z,18.50
2018-09-04T23:10:50.610Z,18.40
2018-09-04T23:13:18.759Z,18.40
2018-09-04T23:15:46.880Z,18.20
2018-09-04T23:18:15.110Z,18.30
2018-09-04T23:20:43.316Z,18.20
2018-09-04T23:23:11.447Z,18.10
2018-09-04T23:25:39.574Z,18.00
2018-09-04T23:28:07.757Z,18.00
2018-09-04T23:30:35.923Z,18.00
2018-09-04T23:33:04.221Z,18.00
2018-09-04T23:35:32.309Z,18.10
2018-09-04T23:38:00.464Z,18.20
2018-09-04T23:40:28.656Z,18.10
2018-09-04T23:42:56.832Z,18.10
2018-09-04T23:45:24.951Z,18.10
2018-09-04T23:47:53.081Z,18.00
2018-09-04T23:50:21.380Z,18.00
2018-09-04T23:52:49.545Z,18.00
2018-09-04T23:55:17.693Z,18.00
2018-09-04T23:57:45.825Z,17.90
